WMT542 LROP-LIPH
Flight info
| Callsign | WMT542 |
|---|---|
| Flight time | 1h 45m |
| Altitude | 36000 |
| Route | POLUN DCT ANASA DCT PUL DCT LABIN L614 CHI N503 INBUT |
| Aircraft | A321/M-L/S |
Departure
| Time | 2026-05-06 15:03 |
|---|---|
| Airport | Bucharest Henri Coandă International Airport (LROP) |
Arrival
| Time | 2026-05-06 16:48 |
|---|---|
| Airport | Treviso Airport (LIPH) |
| Time | Latitude | Longitude | Altitude | Speed | Heading |
|---|---|---|---|---|---|
| 2026-05-06 14:40 | 44.56858 | 26.08067 | 323 ft | 0 kts | 353° |
| 2026-05-06 14:58 | 44.56859 | 26.08067 | 323 ft | 0 kts | 353° |
| 2026-05-06 14:58 | 44.56867 | 26.08066 | 323 ft | 2 kts | 353° |
| 2026-05-06 14:58 | 44.56886 | 26.08063 | 322 ft | 3 kts | 353° |
| 2026-05-06 14:58 | 44.56914 | 26.08060 | 323 ft | 4 kts | 6° |
| 2026-05-06 14:59 | 44.56931 | 26.08094 | 323 ft | 5 kts | 71° |
| 2026-05-06 14:59 | 44.56937 | 26.08148 | 321 ft | 6 kts | 83° |
| 2026-05-06 14:59 | 44.56943 | 26.08216 | 323 ft | 8 kts | 84° |
| 2026-05-06 14:59 | 44.56949 | 26.08295 | 323 ft | 9 kts | 84° |
| 2026-05-06 15:00 | 44.56970 | 26.08377 | 321 ft | 10 kts | 40° |
| 2026-05-06 15:00 | 44.57038 | 26.08384 | 323 ft | 11 kts | 354° |
| 2026-05-06 15:00 | 44.57116 | 26.08373 | 323 ft | 12 kts | 354° |
| 2026-05-06 15:00 | 44.57202 | 26.08367 | 323 ft | 12 kts | 11° |
| 2026-05-06 15:01 | 44.57232 | 26.08465 | 323 ft | 12 kts | 77° |
| 2026-05-06 15:01 | 44.57302 | 26.08495 | 323 ft | 12 kts | 352° |
| 2026-05-06 15:01 | 44.57392 | 26.08482 | 323 ft | 13 kts | 354° |
| 2026-05-06 15:01 | 44.57489 | 26.08468 | 323 ft | 15 kts | 354° |
| 2026-05-06 15:02 | 44.57592 | 26.08453 | 323 ft | 13 kts | 354° |
| 2026-05-06 15:02 | 44.57658 | 26.08467 | 323 ft | 9 kts | 46° |
| 2026-05-06 15:02 | 44.57671 | 26.08551 | 324 ft | 10 kts | 83° |
| 2026-05-06 15:02 | 44.57685 | 26.08737 | 320 ft | 45 kts | 83° |
| 2026-05-06 15:03 | 44.57743 | 26.09518 | 322 ft | 113 kts | 84° |
| 2026-05-06 15:03 | 44.57846 | 26.10875 | 353 ft | 163 kts | 83° |
| 2026-05-06 15:03 | 44.57969 | 26.12475 | 913 ft | 165 kts | 85° |
| 2026-05-06 15:03 | 44.58094 | 26.14081 | 1613 ft | 165 kts | 88° |
| 2026-05-06 15:04 | 44.58016 | 26.15659 | 2116 ft | 166 kts | 118° |
| 2026-05-06 15:04 | 44.57189 | 26.16709 | 2664 ft | 165 kts | 162° |
| 2026-05-06 15:04 | 44.56064 | 26.16623 | 3227 ft | 168 kts | 204° |
| 2026-05-06 15:04 | 44.55252 | 26.15427 | 3695 ft | 182 kts | 244° |
| 2026-05-06 15:05 | 44.55021 | 26.13568 | 3917 ft | 206 kts | 265° |
| 2026-05-06 15:05 | 44.54940 | 26.11446 | 4138 ft | 229 kts | 265° |
| 2026-05-06 15:05 | 44.54826 | 26.09090 | 4350 ft | 256 kts | 265° |
| 2026-05-06 15:05 | 44.54696 | 26.06535 | 4922 ft | 267 kts | 265° |
| 2026-05-06 15:06 | 44.54550 | 26.03908 | 5671 ft | 272 kts | 266° |
| 2026-05-06 15:06 | 44.54401 | 26.01262 | 6479 ft | 274 kts | 267° |
| 2026-05-06 15:06 | 44.54255 | 25.98585 | 7270 ft | 276 kts | 267° |
| 2026-05-06 15:06 | 44.54109 | 25.95885 | 7994 ft | 280 kts | 267° |
| 2026-05-06 15:07 | 44.53960 | 25.93150 | 8734 ft | 284 kts | 267° |
| 2026-05-06 15:07 | 44.53811 | 25.90378 | 9514 ft | 286 kts | 268° |
| 2026-05-06 15:07 | 44.53713 | 25.88489 | 10016 ft | 289 kts | 268° |
| 2026-05-06 15:07 | 44.53515 | 25.84618 | 10393 ft | 316 kts | 267° |
| 2026-05-06 15:08 | 44.53407 | 25.82486 | 10490 ft | 332 kts | 267° |
| 2026-05-06 15:08 | 44.53237 | 25.79182 | 10872 ft | 345 kts | 267° |
| 2026-05-06 15:08 | 44.53059 | 25.75800 | 11488 ft | 350 kts | 267° |
| 2026-05-06 15:08 | 44.52876 | 25.72388 | 12151 ft | 353 kts | 267° |
| 2026-05-06 15:09 | 44.52689 | 25.68933 | 12819 ft | 357 kts | 266° |
| 2026-05-06 15:09 | 44.52498 | 25.65457 | 13497 ft | 360 kts | 266° |
| 2026-05-06 15:09 | 44.52302 | 25.61933 | 14130 ft | 364 kts | 266° |
| 2026-05-06 15:09 | 44.52103 | 25.58389 | 14740 ft | 367 kts | 266° |
| 2026-05-06 15:10 | 44.51902 | 25.54806 | 15356 ft | 370 kts | 266° |
| 2026-05-06 15:10 | 44.51698 | 25.51193 | 15964 ft | 374 kts | 266° |
| 2026-05-06 15:10 | 44.51493 | 25.47547 | 16566 ft | 377 kts | 266° |
| 2026-05-06 15:10 | 44.51286 | 25.43877 | 17150 ft | 381 kts | 266° |
| 2026-05-06 15:11 | 44.51075 | 25.40201 | 17748 ft | 384 kts | 266° |
| 2026-05-06 15:11 | 44.50856 | 25.36410 | 18317 ft | 388 kts | 266° |
| 2026-05-06 15:11 | 44.50637 | 25.32629 | 18827 ft | 391 kts | 266° |
| 2026-05-06 15:11 | 44.50414 | 25.28818 | 19373 ft | 393 kts | 266° |
| 2026-05-06 15:12 | 44.50189 | 25.24987 | 19917 ft | 396 kts | 266° |
| 2026-05-06 15:12 | 44.49963 | 25.21135 | 20469 ft | 398 kts | 266° |
| 2026-05-06 15:12 | 44.49734 | 25.17254 | 21006 ft | 401 kts | 266° |
| 2026-05-06 15:12 | 44.49505 | 25.13408 | 21536 ft | 403 kts | 266° |
| 2026-05-06 15:13 | 44.49267 | 25.09429 | 22053 ft | 406 kts | 266° |
| 2026-05-06 15:13 | 44.49033 | 25.05490 | 22555 ft | 408 kts | 267° |
| 2026-05-06 15:13 | 44.48797 | 25.01513 | 23051 ft | 410 kts | 267° |
| 2026-05-06 15:13 | 44.48557 | 24.97518 | 23530 ft | 413 kts | 267° |
| 2026-05-06 15:14 | 44.48310 | 24.93497 | 23931 ft | 415 kts | 267° |
| 2026-05-06 15:14 | 44.48057 | 24.89458 | 24348 ft | 417 kts | 267° |
| 2026-05-06 15:14 | 44.47802 | 24.85411 | 24762 ft | 419 kts | 267° |
| 2026-05-06 15:14 | 44.47546 | 24.81342 | 25163 ft | 420 kts | 267° |
| 2026-05-06 15:15 | 44.47290 | 24.77267 | 25576 ft | 421 kts | 267° |
| 2026-05-06 15:15 | 44.47033 | 24.73175 | 25978 ft | 423 kts | 267° |
| 2026-05-06 15:15 | 44.46776 | 24.69067 | 26382 ft | 424 kts | 268° |
| 2026-05-06 15:15 | 44.46519 | 24.64943 | 26784 ft | 425 kts | 268° |
| 2026-05-06 15:16 | 44.46268 | 24.60946 | 27166 ft | 427 kts | 268° |
| 2026-05-06 15:16 | 44.45996 | 24.56698 | 27568 ft | 428 kts | 267° |
| 2026-05-06 15:16 | 44.45723 | 24.52547 | 27951 ft | 429 kts | 267° |
| 2026-05-06 15:16 | 44.45449 | 24.48420 | 28321 ft | 431 kts | 268° |
| 2026-05-06 15:17 | 44.45171 | 24.44190 | 28699 ft | 432 kts | 268° |
| 2026-05-06 15:17 | 44.44895 | 24.39989 | 29062 ft | 433 kts | 268° |
| 2026-05-06 15:17 | 44.44621 | 24.35844 | 29421 ft | 435 kts | 268° |
| 2026-05-06 15:17 | 44.44339 | 24.31625 | 29788 ft | 436 kts | 268° |
| 2026-05-06 15:18 | 44.44049 | 24.27337 | 30139 ft | 438 kts | 267° |
| 2026-05-06 15:18 | 44.43766 | 24.23150 | 30475 ft | 438 kts | 267° |
| 2026-05-06 15:18 | 44.43477 | 24.18858 | 30894 ft | 436 kts | 268° |
| 2026-05-06 15:18 | 44.43195 | 24.14645 | 31307 ft | 434 kts | 268° |
| 2026-05-06 15:19 | 44.42911 | 24.10445 | 31704 ft | 433 kts | 267° |
| 2026-05-06 15:19 | 44.42624 | 24.06262 | 32118 ft | 431 kts | 267° |
| 2026-05-06 15:19 | 44.42335 | 24.02098 | 32519 ft | 430 kts | 267° |
| 2026-05-06 15:19 | 44.42046 | 23.97943 | 32924 ft | 428 kts | 267° |
| 2026-05-06 15:20 | 44.41760 | 23.93856 | 33315 ft | 427 kts | 267° |
| 2026-05-06 15:20 | 44.41471 | 23.89728 | 33715 ft | 425 kts | 268° |
| 2026-05-06 15:20 | 44.41183 | 23.85619 | 34086 ft | 424 kts | 268° |
| 2026-05-06 15:20 | 44.40891 | 23.81524 | 34403 ft | 423 kts | 267° |
| 2026-05-06 15:21 | 44.40598 | 23.77433 | 34707 ft | 422 kts | 267° |
| 2026-05-06 15:21 | 44.40304 | 23.73345 | 35002 ft | 422 kts | 267° |
| 2026-05-06 15:21 | 44.40009 | 23.69264 | 35300 ft | 422 kts | 267° |
| 2026-05-06 15:21 | 44.39713 | 23.65197 | 35597 ft | 421 kts | 267° |
| 2026-05-06 15:22 | 44.39410 | 23.61069 | 35875 ft | 421 kts | 267° |
| 2026-05-06 15:22 | 44.38808 | 23.52937 | 35967 ft | 419 kts | 267° |
| 2026-05-06 15:23 | 44.38209 | 23.44894 | 35965 ft | 419 kts | 267° |
| 2026-05-06 15:23 | 44.37605 | 23.36806 | 35960 ft | 418 kts | 266° |
| 2026-05-06 15:24 | 44.36999 | 23.28724 | 35960 ft | 418 kts | 266° |
| 2026-05-06 15:24 | 44.36384 | 23.20659 | 35958 ft | 418 kts | 266° |
| 2026-05-06 15:25 | 44.35759 | 23.12587 | 35962 ft | 418 kts | 266° |
| 2026-05-06 15:25 | 44.35136 | 23.04594 | 35960 ft | 418 kts | 266° |
| 2026-05-06 15:26 | 44.34502 | 22.96517 | 35963 ft | 418 kts | 266° |
| 2026-05-06 15:26 | 44.33864 | 22.88449 | 35973 ft | 418 kts | 266° |
| 2026-05-06 15:27 | 44.33220 | 22.80391 | 35966 ft | 418 kts | 266° |
| 2026-05-06 15:27 | 44.32571 | 22.72331 | 35963 ft | 417 kts | 265° |
| 2026-05-06 15:28 | 44.31914 | 22.64282 | 35970 ft | 417 kts | 265° |
| 2026-05-06 15:28 | 44.31344 | 22.56225 | 35971 ft | 415 kts | 271° |
| 2026-05-06 15:29 | 44.31965 | 22.48244 | 35971 ft | 413 kts | 279° |
| 2026-05-06 15:29 | 44.32803 | 22.40310 | 35972 ft | 413 kts | 279° |
| 2026-05-06 15:30 | 44.33631 | 22.32358 | 35968 ft | 414 kts | 279° |
| 2026-05-06 15:30 | 44.34451 | 22.24408 | 35971 ft | 414 kts | 279° |
| 2026-05-06 15:31 | 44.35267 | 22.16447 | 35962 ft | 414 kts | 279° |
| 2026-05-06 15:31 | 44.36076 | 22.08532 | 35976 ft | 414 kts | 279° |
| 2026-05-06 15:32 | 44.37281 | 21.96570 | 35961 ft | 414 kts | 278° |
| 2026-05-06 15:32 | 44.38081 | 21.88582 | 35978 ft | 415 kts | 278° |
| 2026-05-06 15:33 | 44.38878 | 21.80594 | 35974 ft | 415 kts | 278° |
| 2026-05-06 15:33 | 44.39670 | 21.72617 | 35963 ft | 415 kts | 278° |
| 2026-05-06 15:34 | 44.40455 | 21.64621 | 35973 ft | 415 kts | 278° |
| 2026-05-06 15:34 | 44.41229 | 21.56630 | 35964 ft | 415 kts | 278° |
| 2026-05-06 15:35 | 44.42000 | 21.48625 | 35973 ft | 415 kts | 278° |
| 2026-05-06 15:35 | 44.42766 | 21.40631 | 35952 ft | 415 kts | 278° |
| 2026-05-06 15:36 | 44.43527 | 21.32636 | 35953 ft | 415 kts | 277° |
| 2026-05-06 15:36 | 44.44282 | 21.24655 | 35952 ft | 414 kts | 277° |
| 2026-05-06 15:37 | 44.45030 | 21.16653 | 35941 ft | 414 kts | 277° |
| 2026-05-06 15:37 | 44.45769 | 21.08650 | 35949 ft | 414 kts | 277° |
| 2026-05-06 15:38 | 44.46501 | 21.00658 | 35949 ft | 414 kts | 277° |
| 2026-05-06 15:38 | 44.47234 | 20.92665 | 35939 ft | 414 kts | 277° |
| 2026-05-06 15:39 | 44.47967 | 20.84664 | 35939 ft | 414 kts | 277° |
| 2026-05-06 15:39 | 44.48693 | 20.76654 | 35945 ft | 415 kts | 277° |
| 2026-05-06 15:40 | 44.49407 | 20.68638 | 35941 ft | 415 kts | 277° |
| 2026-05-06 15:40 | 44.50118 | 20.60616 | 35953 ft | 415 kts | 276° |
| 2026-05-06 15:41 | 44.50822 | 20.52589 | 35948 ft | 415 kts | 276° |
| 2026-05-06 15:41 | 44.51517 | 20.44552 | 35949 ft | 415 kts | 276° |
| 2026-05-06 15:42 | 44.52208 | 20.36528 | 35951 ft | 415 kts | 276° |
| 2026-05-06 15:42 | 44.52905 | 20.28493 | 35935 ft | 415 kts | 276° |
| 2026-05-06 15:43 | 44.53589 | 20.20467 | 35942 ft | 415 kts | 276° |
| 2026-05-06 15:43 | 44.54266 | 20.12434 | 35940 ft | 415 kts | 276° |
| 2026-05-06 15:44 | 44.54936 | 20.04406 | 35940 ft | 415 kts | 276° |
| 2026-05-06 15:44 | 44.55597 | 19.96372 | 35939 ft | 415 kts | 276° |
| 2026-05-06 15:45 | 44.56255 | 19.88352 | 35942 ft | 415 kts | 276° |
| 2026-05-06 15:45 | 44.56907 | 19.80314 | 35936 ft | 414 kts | 275° |
| 2026-05-06 15:46 | 44.57556 | 19.72285 | 35933 ft | 415 kts | 275° |
| 2026-05-06 15:46 | 44.58094 | 19.65605 | 35936 ft | 415 kts | 275° |
| 2026-05-06 15:47 | 44.58734 | 19.57565 | 35927 ft | 415 kts | 275° |
| 2026-05-06 15:47 | 44.59366 | 19.49523 | 35938 ft | 414 kts | 275° |
| 2026-05-06 15:48 | 44.59998 | 19.41439 | 35936 ft | 414 kts | 275° |
| 2026-05-06 15:48 | 44.60617 | 19.33397 | 35934 ft | 414 kts | 275° |
| 2026-05-06 15:49 | 44.61231 | 19.25355 | 35932 ft | 414 kts | 275° |
| 2026-05-06 15:49 | 44.61840 | 19.17318 | 35932 ft | 415 kts | 274° |
| 2026-05-06 15:50 | 44.62441 | 19.09265 | 35934 ft | 415 kts | 274° |
| 2026-05-06 15:50 | 44.63041 | 19.01221 | 35924 ft | 414 kts | 274° |
| 2026-05-06 15:51 | 44.63637 | 18.93171 | 35929 ft | 414 kts | 274° |
| 2026-05-06 15:51 | 44.64219 | 18.85121 | 35927 ft | 414 kts | 274° |
| 2026-05-06 15:52 | 44.64793 | 18.77136 | 35922 ft | 414 kts | 274° |
| 2026-05-06 15:52 | 44.65368 | 18.69092 | 35922 ft | 414 kts | 274° |
| 2026-05-06 15:53 | 44.65940 | 18.61059 | 35925 ft | 413 kts | 274° |
| 2026-05-06 15:53 | 44.66500 | 18.53026 | 35929 ft | 413 kts | 273° |
| 2026-05-06 15:54 | 44.67058 | 18.44936 | 35935 ft | 413 kts | 273° |
| 2026-05-06 15:54 | 44.67605 | 18.36967 | 35939 ft | 413 kts | 273° |
| 2026-05-06 15:55 | 44.68158 | 18.28891 | 35940 ft | 412 kts | 273° |
| 2026-05-06 15:55 | 44.68698 | 18.20862 | 35936 ft | 412 kts | 273° |
| 2026-05-06 15:56 | 44.69229 | 18.12848 | 35936 ft | 412 kts | 273° |
| 2026-05-06 15:56 | 44.69751 | 18.04860 | 35936 ft | 413 kts | 272° |
| 2026-05-06 15:57 | 44.70281 | 17.96790 | 35940 ft | 412 kts | 272° |
| 2026-05-06 15:57 | 44.70807 | 17.88760 | 35939 ft | 412 kts | 272° |
| 2026-05-06 15:58 | 44.71313 | 17.80729 | 35940 ft | 413 kts | 272° |
| 2026-05-06 15:58 | 44.71812 | 17.72694 | 35940 ft | 413 kts | 272° |
| 2026-05-06 15:59 | 44.72309 | 17.64644 | 35939 ft | 413 kts | 272° |
| 2026-05-06 15:59 | 44.72807 | 17.56587 | 35941 ft | 414 kts | 272° |
| 2026-05-06 16:00 | 44.73300 | 17.48521 | 35942 ft | 414 kts | 272° |
| 2026-05-06 16:00 | 44.73782 | 17.40446 | 35942 ft | 415 kts | 272° |
| 2026-05-06 16:01 | 44.74259 | 17.32409 | 35945 ft | 415 kts | 272° |
| 2026-05-06 16:01 | 44.74738 | 17.24275 | 35944 ft | 415 kts | 272° |
| 2026-05-06 16:02 | 44.75205 | 17.16191 | 35946 ft | 414 kts | 271° |
| 2026-05-06 16:02 | 44.75669 | 17.08104 | 35946 ft | 415 kts | 271° |
| 2026-05-06 16:03 | 44.76131 | 17.00030 | 35951 ft | 414 kts | 271° |
| 2026-05-06 16:03 | 44.76579 | 16.91945 | 35954 ft | 414 kts | 271° |
| 2026-05-06 16:04 | 44.77019 | 16.83861 | 35964 ft | 414 kts | 271° |
| 2026-05-06 16:04 | 44.77458 | 16.75778 | 35958 ft | 414 kts | 271° |
| 2026-05-06 16:05 | 44.77900 | 16.67706 | 35962 ft | 414 kts | 271° |
| 2026-05-06 16:05 | 44.78324 | 16.59705 | 35970 ft | 413 kts | 271° |
| 2026-05-06 16:06 | 44.78740 | 16.51636 | 35972 ft | 413 kts | 271° |
| 2026-05-06 16:06 | 44.79149 | 16.43571 | 35978 ft | 413 kts | 271° |
| 2026-05-06 16:07 | 44.79560 | 16.35514 | 35977 ft | 412 kts | 271° |
| 2026-05-06 16:07 | 44.79961 | 16.27481 | 35980 ft | 411 kts | 271° |
| 2026-05-06 16:08 | 44.80358 | 16.19455 | 35982 ft | 410 kts | 271° |
| 2026-05-06 16:08 | 44.80752 | 16.11442 | 35981 ft | 409 kts | 271° |
| 2026-05-06 16:09 | 44.81134 | 16.03456 | 35988 ft | 409 kts | 271° |
| 2026-05-06 16:09 | 44.81506 | 15.95514 | 35987 ft | 409 kts | 271° |
| 2026-05-06 16:10 | 44.81881 | 15.87526 | 35985 ft | 409 kts | 271° |
| 2026-05-06 16:10 | 44.82256 | 15.79499 | 35990 ft | 408 kts | 271° |
| 2026-05-06 16:11 | 44.82614 | 15.71576 | 35994 ft | 408 kts | 271° |
| 2026-05-06 16:11 | 44.82967 | 15.63608 | 35990 ft | 408 kts | 271° |
| 2026-05-06 16:12 | 44.83316 | 15.55586 | 35995 ft | 408 kts | 271° |
| 2026-05-06 16:12 | 44.83662 | 15.47609 | 35989 ft | 408 kts | 271° |
| 2026-05-06 16:13 | 44.83997 | 15.39630 | 35991 ft | 408 kts | 271° |
| 2026-05-06 16:13 | 44.84324 | 15.31643 | 35987 ft | 408 kts | 270° |
| 2026-05-06 16:14 | 44.84648 | 15.23651 | 35987 ft | 409 kts | 271° |
| 2026-05-06 16:14 | 44.84974 | 15.15651 | 35988 ft | 409 kts | 271° |
| 2026-05-06 16:15 | 44.85292 | 15.07655 | 35987 ft | 409 kts | 270° |
| 2026-05-06 16:15 | 44.85598 | 14.99693 | 35988 ft | 410 kts | 270° |
| 2026-05-06 16:16 | 44.85906 | 14.91672 | 35993 ft | 410 kts | 270° |
| 2026-05-06 16:16 | 44.86059 | 14.87680 | 35659 ft | 408 kts | 270° |
| 2026-05-06 16:16 | 44.86211 | 14.83694 | 35107 ft | 407 kts | 270° |
| 2026-05-06 16:17 | 44.86360 | 14.79705 | 34548 ft | 407 kts | 270° |
| 2026-05-06 16:17 | 44.86508 | 14.75669 | 33989 ft | 407 kts | 270° |
| 2026-05-06 16:17 | 44.86651 | 14.71735 | 33354 ft | 407 kts | 270° |
| 2026-05-06 16:17 | 44.86796 | 14.67750 | 32735 ft | 406 kts | 270° |
| 2026-05-06 16:18 | 44.86937 | 14.63792 | 32263 ft | 402 kts | 270° |
| 2026-05-06 16:18 | 44.87073 | 14.59823 | 31777 ft | 398 kts | 270° |
| 2026-05-06 16:18 | 44.87203 | 14.56001 | 31301 ft | 394 kts | 270° |
| 2026-05-06 16:18 | 44.87332 | 14.52163 | 30833 ft | 390 kts | 270° |
| 2026-05-06 16:19 | 44.87461 | 14.48307 | 30363 ft | 386 kts | 270° |
| 2026-05-06 16:19 | 44.87583 | 14.44592 | 29882 ft | 383 kts | 270° |
| 2026-05-06 16:19 | 44.87706 | 14.40853 | 29298 ft | 380 kts | 270° |
| 2026-05-06 16:19 | 44.87829 | 14.37149 | 28757 ft | 377 kts | 270° |
| 2026-05-06 16:20 | 44.87953 | 14.33426 | 28173 ft | 375 kts | 270° |
| 2026-05-06 16:20 | 44.88076 | 14.29758 | 27647 ft | 372 kts | 269° |
| 2026-05-06 16:20 | 44.88194 | 14.26174 | 27100 ft | 370 kts | 269° |
| 2026-05-06 16:20 | 44.88311 | 14.22560 | 26571 ft | 369 kts | 269° |
| 2026-05-06 16:21 | 44.88427 | 14.18904 | 26088 ft | 366 kts | 269° |
| 2026-05-06 16:21 | 44.88538 | 14.15360 | 25843 ft | 367 kts | 269° |
| 2026-05-06 16:21 | 44.88649 | 14.11713 | 25599 ft | 368 kts | 269° |
| 2026-05-06 16:21 | 44.88759 | 14.08116 | 25418 ft | 367 kts | 269° |
| 2026-05-06 16:22 | 44.88868 | 14.04517 | 25241 ft | 367 kts | 269° |
| 2026-05-06 16:22 | 44.88975 | 14.00930 | 25082 ft | 366 kts | 269° |
| 2026-05-06 16:22 | 44.89078 | 13.97339 | 24915 ft | 366 kts | 269° |
| 2026-05-06 16:22 | 44.89183 | 13.93752 | 24750 ft | 366 kts | 269° |
| 2026-05-06 16:23 | 44.89427 | 13.90179 | 24587 ft | 368 kts | 276° |
| 2026-05-06 16:23 | 44.89707 | 13.87824 | 24465 ft | 368 kts | 276° |
| 2026-05-06 16:23 | 44.90125 | 13.84276 | 24228 ft | 367 kts | 276° |
| 2026-05-06 16:23 | 44.90538 | 13.80729 | 23998 ft | 366 kts | 276° |
| 2026-05-06 16:24 | 44.90945 | 13.77186 | 23767 ft | 365 kts | 275° |
| 2026-05-06 16:24 | 44.91348 | 13.73656 | 23534 ft | 365 kts | 276° |
| 2026-05-06 16:24 | 44.91752 | 13.70125 | 23278 ft | 364 kts | 276° |
| 2026-05-06 16:24 | 44.92157 | 13.66604 | 23001 ft | 363 kts | 276° |
| 2026-05-06 16:25 | 44.92559 | 13.63097 | 22731 ft | 362 kts | 276° |
| 2026-05-06 16:25 | 44.92960 | 13.59602 | 22468 ft | 360 kts | 276° |
| 2026-05-06 16:25 | 44.93359 | 13.56114 | 22194 ft | 359 kts | 276° |
| 2026-05-06 16:25 | 44.93752 | 13.52641 | 21933 ft | 358 kts | 276° |
| 2026-05-06 16:26 | 44.94143 | 13.49182 | 21672 ft | 356 kts | 276° |
| 2026-05-06 16:26 | 44.94530 | 13.45737 | 21456 ft | 355 kts | 276° |
| 2026-05-06 16:26 | 44.94917 | 13.42294 | 21223 ft | 354 kts | 276° |
| 2026-05-06 16:26 | 44.95301 | 13.38863 | 20970 ft | 353 kts | 276° |
| 2026-05-06 16:27 | 44.95681 | 13.35447 | 20714 ft | 351 kts | 276° |
| 2026-05-06 16:27 | 44.96058 | 13.32045 | 20464 ft | 350 kts | 276° |
| 2026-05-06 16:27 | 44.96435 | 13.28655 | 20212 ft | 349 kts | 276° |
| 2026-05-06 16:27 | 44.96811 | 13.25273 | 19966 ft | 348 kts | 276° |
| 2026-05-06 16:28 | 44.97186 | 13.21906 | 19719 ft | 347 kts | 276° |
| 2026-05-06 16:28 | 44.97558 | 13.18545 | 19473 ft | 345 kts | 276° |
| 2026-05-06 16:28 | 44.97924 | 13.15203 | 19241 ft | 344 kts | 276° |
| 2026-05-06 16:28 | 44.98289 | 13.11873 | 19004 ft | 342 kts | 276° |
| 2026-05-06 16:29 | 44.98653 | 13.08551 | 18879 ft | 342 kts | 276° |
| 2026-05-06 16:29 | 44.99014 | 13.05235 | 18896 ft | 342 kts | 276° |
| 2026-05-06 16:29 | 44.99371 | 13.01924 | 18900 ft | 342 kts | 275° |
| 2026-05-06 16:29 | 44.99728 | 12.98597 | 18894 ft | 342 kts | 275° |
| 2026-05-06 16:30 | 45.00085 | 12.95278 | 18892 ft | 342 kts | 275° |
| 2026-05-06 16:30 | 45.00328 | 12.93030 | 18891 ft | 342 kts | 275° |
| 2026-05-06 16:30 | 45.00798 | 12.88637 | 18891 ft | 342 kts | 275° |
| 2026-05-06 16:30 | 45.01151 | 12.85311 | 18887 ft | 342 kts | 275° |
| 2026-05-06 16:31 | 45.01505 | 12.81994 | 18888 ft | 342 kts | 275° |
| 2026-05-06 16:31 | 45.01858 | 12.78678 | 18852 ft | 340 kts | 275° |
| 2026-05-06 16:31 | 45.02206 | 12.75396 | 18432 ft | 337 kts | 275° |
| 2026-05-06 16:31 | 45.02551 | 12.72128 | 17951 ft | 335 kts | 275° |
| 2026-05-06 16:32 | 45.02892 | 12.68885 | 17454 ft | 333 kts | 275° |
| 2026-05-06 16:32 | 45.03231 | 12.65661 | 16955 ft | 331 kts | 275° |
| 2026-05-06 16:32 | 45.03567 | 12.62458 | 16461 ft | 328 kts | 275° |
| 2026-05-06 16:32 | 45.03900 | 12.59269 | 15973 ft | 326 kts | 275° |
| 2026-05-06 16:33 | 45.04229 | 12.56101 | 15485 ft | 324 kts | 275° |
| 2026-05-06 16:33 | 45.04557 | 12.52953 | 15023 ft | 323 kts | 275° |
| 2026-05-06 16:33 | 45.04882 | 12.49829 | 14564 ft | 321 kts | 275° |
| 2026-05-06 16:34 | 45.05528 | 12.43623 | 13884 ft | 318 kts | 275° |
| 2026-05-06 16:34 | 45.05846 | 12.40521 | 13871 ft | 320 kts | 275° |
| 2026-05-06 16:34 | 45.06163 | 12.37409 | 13875 ft | 320 kts | 275° |
| 2026-05-06 16:34 | 45.06481 | 12.34296 | 13832 ft | 319 kts | 275° |
| 2026-05-06 16:35 | 45.06906 | 12.31227 | 13385 ft | 319 kts | 284° |
| 2026-05-06 16:35 | 45.07840 | 12.28369 | 12898 ft | 323 kts | 298° |
| 2026-05-06 16:35 | 45.09287 | 12.25913 | 12426 ft | 327 kts | 313° |
| 2026-05-06 16:35 | 45.11078 | 12.23944 | 11966 ft | 328 kts | 319° |
| 2026-05-06 16:36 | 45.12913 | 12.22013 | 11520 ft | 326 kts | 319° |
| 2026-05-06 16:36 | 45.14724 | 12.20099 | 11094 ft | 323 kts | 319° |
| 2026-05-06 16:36 | 45.16511 | 12.18202 | 10838 ft | 315 kts | 319° |
| 2026-05-06 16:36 | 45.18229 | 12.16380 | 10716 ft | 303 kts | 319° |
| 2026-05-06 16:37 | 45.19891 | 12.14622 | 10562 ft | 294 kts | 318° |
| 2026-05-06 16:37 | 45.21515 | 12.12898 | 10265 ft | 290 kts | 318° |
| 2026-05-06 16:37 | 45.23123 | 12.11185 | 9944 ft | 288 kts | 318° |
| 2026-05-06 16:37 | 45.24716 | 12.09482 | 9596 ft | 286 kts | 318° |
| 2026-05-06 16:38 | 45.26301 | 12.07787 | 9234 ft | 284 kts | 318° |
| 2026-05-06 16:38 | 45.27876 | 12.06104 | 8877 ft | 283 kts | 318° |
| 2026-05-06 16:38 | 45.29444 | 12.04432 | 8512 ft | 281 kts | 319° |
| 2026-05-06 16:38 | 45.31005 | 12.02769 | 8165 ft | 279 kts | 319° |
| 2026-05-06 16:39 | 45.32554 | 12.01121 | 7906 ft | 276 kts | 319° |
| 2026-05-06 16:39 | 45.34098 | 11.99479 | 7873 ft | 278 kts | 319° |
| 2026-05-06 16:39 | 45.35649 | 11.97824 | 7876 ft | 279 kts | 319° |
| 2026-05-06 16:39 | 45.37221 | 11.96140 | 7878 ft | 279 kts | 319° |
| 2026-05-06 16:40 | 45.38767 | 11.94487 | 7874 ft | 274 kts | 319° |
| 2026-05-06 16:40 | 45.40252 | 11.92909 | 7879 ft | 259 kts | 319° |
| 2026-05-06 16:40 | 45.41649 | 11.91425 | 7774 ft | 250 kts | 318° |
| 2026-05-06 16:40 | 45.43016 | 11.89970 | 7532 ft | 243 kts | 318° |
| 2026-05-06 16:41 | 45.44346 | 11.88544 | 6970 ft | 240 kts | 318° |
| 2026-05-06 16:41 | 45.45675 | 11.87109 | 6399 ft | 239 kts | 318° |
| 2026-05-06 16:41 | 45.46988 | 11.85693 | 5931 ft | 235 kts | 319° |
| 2026-05-06 16:41 | 45.48300 | 11.84280 | 5718 ft | 237 kts | 319° |
| 2026-05-06 16:42 | 45.49618 | 11.82870 | 5489 ft | 238 kts | 322° |
| 2026-05-06 16:42 | 45.51152 | 11.81944 | 5262 ft | 243 kts | 346° |
| 2026-05-06 16:42 | 45.52864 | 11.81984 | 5034 ft | 246 kts | 11° |
| 2026-05-06 16:42 | 45.54395 | 11.82984 | 4780 ft | 247 kts | 36° |
| 2026-05-06 16:43 | 45.55523 | 11.84796 | 4491 ft | 245 kts | 61° |
| 2026-05-06 16:43 | 45.56183 | 11.87022 | 4220 ft | 243 kts | 69° |
| 2026-05-06 16:43 | 45.56794 | 11.89255 | 3945 ft | 239 kts | 69° |
| 2026-05-06 16:43 | 45.57393 | 11.91435 | 3680 ft | 233 kts | 69° |
| 2026-05-06 16:44 | 45.57969 | 11.93557 | 3466 ft | 225 kts | 70° |
| 2026-05-06 16:44 | 45.58515 | 11.95598 | 3264 ft | 217 kts | 70° |
| 2026-05-06 16:44 | 45.59029 | 11.97570 | 3055 ft | 206 kts | 70° |
| 2026-05-06 16:44 | 45.59520 | 11.99424 | 2784 ft | 195 kts | 70° |
| 2026-05-06 16:45 | 45.59998 | 12.01214 | 2525 ft | 189 kts | 70° |
| 2026-05-06 16:45 | 45.60457 | 12.02929 | 2285 ft | 181 kts | 70° |
| 2026-05-06 16:45 | 45.60896 | 12.04573 | 2046 ft | 173 kts | 70° |
| 2026-05-06 16:45 | 45.61313 | 12.06133 | 1833 ft | 162 kts | 70° |
| 2026-05-06 16:46 | 45.61706 | 12.07601 | 1627 ft | 152 kts | 71° |
| 2026-05-06 16:46 | 45.62075 | 12.08981 | 1399 ft | 147 kts | 71° |
| 2026-05-06 16:46 | 45.62433 | 12.10330 | 1191 ft | 144 kts | 70° |
| 2026-05-06 16:46 | 45.62787 | 12.11658 | 1017 ft | 142 kts | 70° |
| 2026-05-06 16:47 | 45.63135 | 12.12973 | 822 ft | 141 kts | 70° |
| 2026-05-06 16:47 | 45.63482 | 12.14273 | 647 ft | 139 kts | 69° |
| 2026-05-06 16:47 | 45.63825 | 12.15551 | 469 ft | 137 kts | 70° |
| 2026-05-06 16:47 | 45.64161 | 12.16820 | 278 ft | 136 kts | 70° |
| 2026-05-06 16:48 | 45.64494 | 12.18077 | 106 ft | 135 kts | 70° |
| 2026-05-06 16:48 | 45.64795 | 12.19214 | 63 ft | 103 kts | 68° |
| 2026-05-06 16:48 | 45.64993 | 12.19941 | 59 ft | 54 kts | 70° |
| 2026-05-06 16:48 | 45.65087 | 12.20295 | 62 ft | 34 kts | 68° |
| 2026-05-06 16:49 | 45.65170 | 12.20605 | 58 ft | 33 kts | 69° |
| 2026-05-06 16:49 | 45.65229 | 12.20783 | 59 ft | 11 kts | 32° |
| 2026-05-06 16:49 | 45.65311 | 12.20757 | 56 ft | 13 kts | 338° |
| 2026-05-06 16:49 | 45.65368 | 12.20721 | 57 ft | 7 kts | 319° |
| 2026-05-06 16:50 | 45.65374 | 12.20654 | 62 ft | 8 kts | 258° |
| 2026-05-06 16:50 | 45.65357 | 12.20582 | 59 ft | 5 kts | 261° |
| 2026-05-06 16:50 | 45.65378 | 12.20557 | 60 ft | 5 kts | 333° |
| 2026-05-06 16:50 | 45.65392 | 12.20549 | 58 ft | 3 kts | 335° |
| 2026-05-06 16:51 | 45.65410 | 12.20537 | 55 ft | 1 kts | 338° |
| 2026-05-06 16:51 | 45.65411 | 12.20537 | 55 ft | 0 kts | 338° |